createdAt,value
2023-02-28T00:07:53.194Z,193.47
2023-02-28T00:17:57.027Z,190.13
2023-02-28T00:28:01.837Z,189.47
2023-02-28T00:38:05.456Z,187.57
2023-02-28T00:48:10.260Z,190.23
2023-02-28T00:58:16.174Z,200.27
2023-02-28T01:08:22.005Z,189.87
2023-02-28T01:18:25.588Z,190.83
2023-02-28T01:28:30.860Z,188.17
2023-02-28T01:38:34.822Z,184.43
2023-02-28T01:48:43.138Z,185.37
2023-02-28T01:58:46.751Z,185.60
2023-02-28T02:08:51.821Z,183.87
2023-02-28T02:19:00.147Z,189.00
2023-02-28T02:29:56.777Z,181.43
2023-02-28T02:40:13.598Z,182.53
2023-02-28T02:50:23.441Z,183.77
2023-02-28T03:00:33.597Z,180.00
2023-02-28T03:10:41.407Z,181.47
2023-02-28T03:21:01.785Z,183.43
2023-02-28T03:31:16.554Z,181.40
2023-02-28T03:41:25.807Z,178.10
2023-02-28T03:51:31.856Z,180.67
2023-02-28T04:01:42.393Z,175.40
2023-02-28T04:11:48.177Z,176.50
2023-02-28T04:21:54.794Z,175.33
2023-02-28T04:32:00.098Z,174.27
2023-02-28T04:42:05.238Z,172.53
2023-02-28T04:52:08.990Z,182.37
2023-02-28T05:02:14.210Z,174.17
2023-02-28T05:12:17.633Z,171.03
2023-02-28T05:22:22.530Z,174.27
2023-02-28T05:32:26.096Z,171.23
2023-02-28T05:42:30.997Z,169.23
2023-02-28T05:52:34.828Z,178.37
2023-02-28T06:02:41.928Z,173.40
2023-02-28T06:12:45.398Z,172.83
2023-02-28T06:22:51.787Z,180.47
2023-02-28T06:32:56.025Z,193.90
2023-02-28T06:43:00.837Z,183.37
2023-02-28T06:53:04.319Z,205.20
2023-02-28T07:03:09.285Z,198.30
2023-02-28T07:13:12.956Z,202.57
2023-02-28T07:23:17.834Z,208.50
2023-02-28T07:33:21.445Z,205.37
2023-02-28T07:43:26.428Z,196.80
2023-02-28T07:53:30.460Z,201.80
2023-02-28T08:03:35.566Z,204.63
2023-02-28T08:13:39.020Z,209.57
2023-02-28T08:23:43.926Z,206.57
2023-02-28T08:33:49.630Z,208.03
2023-02-28T08:43:54.812Z,207.97
2023-02-28T08:54:02.432Z,219.17
2023-02-28T09:04:09.428Z,219.17
2023-02-28T09:14:12.943Z,217.30
2023-02-28T09:24:17.915Z,219.63
2023-02-28T09:34:21.767Z,216.97
2023-02-28T09:44:32.725Z,223.03
2023-02-28T09:54:36.133Z,223.47
2023-02-28T10:04:53.654Z,227.73
2023-02-28T10:15:00.690Z,231.17
2023-02-28T10:25:21.267Z,227.13
2023-02-28T10:35:26.594Z,225.00
2023-02-28T10:45:35.013Z,223.13
2023-02-28T10:55:40.381Z,224.73
2023-02-28T11:05:49.859Z,224.10
2023-02-28T11:15:56.052Z,218.70
2023-02-28T11:26:05.697Z,220.75
2023-02-28T11:36:15.174Z,225.25
2023-02-28T11:46:34.596Z,216.45
2023-02-28T11:56:42.324Z,223.90
2023-02-28T12:06:53.000Z,218.25
2023-02-28T12:17:13.431Z,214.02
2023-02-28T12:27:22.761Z,215.57
2023-02-28T12:37:33.998Z,221.07
2023-02-28T12:47:40.677Z,208.40
2023-02-28T12:57:52.098Z,216.45
2023-02-28T13:08:40.023Z,209.40
2023-02-28T13:18:47.711Z,220.98
2023-02-28T13:39:51.972Z,213.52
2023-02-28T13:49:55.861Z,221.80
2023-02-28T14:00:20.678Z,214.55
2023-02-28T14:10:30.370Z,227.48
2023-02-28T14:20:36.430Z,230.60
2023-02-28T14:30:55.563Z,222.52
2023-02-28T14:41:05.718Z,224.87
2023-02-28T14:51:09.252Z,228.63
2023-02-28T15:01:14.193Z,227.43
2023-02-28T15:11:22.442Z,228.43
2023-02-28T15:21:31.143Z,222.40
2023-02-28T15:31:55.377Z,220.27
2023-02-28T15:42:14.893Z,221.40
2023-02-28T15:52:22.505Z,217.07
2023-02-28T16:02:35.150Z,218.00
2023-02-28T16:12:41.060Z,211.97
2023-02-28T16:22:46.812Z,210.17
2023-02-28T16:32:51.186Z,209.43
2023-02-28T16:43:00.935Z,208.00
2023-02-28T16:53:04.371Z,204.47
2023-02-28T17:03:31.983Z,211.13
2023-02-28T17:13:36.700Z,195.97
2023-02-28T17:23:41.682Z,199.03
2023-02-28T17:33:45.412Z,201.97
2023-02-28T17:43:51.322Z,201.27
2023-02-28T17:53:55.204Z,193.90
2023-02-28T18:04:00.188Z,205.77
2023-02-28T18:14:03.740Z,190.83
2023-02-28T18:24:09.023Z,206.73
2023-02-28T18:34:15.618Z,196.83
2023-02-28T18:44:21.456Z,197.07
2023-02-28T18:54:25.089Z,191.07
2023-02-28T19:04:29.945Z,188.73
2023-02-28T19:14:33.614Z,185.50
2023-02-28T19:24:41.399Z,198.27
2023-02-28T19:34:45.143Z,198.90
2023-02-28T19:44:50.391Z,192.07
2023-02-28T19:54:53.944Z,192.33
2023-02-28T20:05:01.308Z,193.13
2023-02-28T20:15:05.705Z,200.77
2023-02-28T20:25:12.203Z,200.00
2023-02-28T20:35:16.101Z,203.27
2023-02-28T20:45:20.965Z,208.73
2023-02-28T20:55:24.589Z,214.53
2023-02-28T21:05:29.531Z,217.47
2023-02-28T21:15:33.245Z,207.83
2023-02-28T21:25:38.239Z,209.63
2023-02-28T21:35:41.732Z,203.37
2023-02-28T21:45:46.571Z,210.77
2023-02-28T21:55:50.094Z,211.27
2023-02-28T22:05:54.914Z,203.27
2023-02-28T22:16:03.169Z,213.43
2023-02-28T22:26:11.481Z,228.07
2023-02-28T22:36:17.569Z,235.17
2023-02-28T22:46:24.388Z,231.77
2023-02-28T22:56:30.787Z,241.60
2023-02-28T23:06:38.193Z,232.77
2023-02-28T23:16:44.145Z,235.63
2023-02-28T23:26:53.022Z,229.63
2023-02-28T23:36:57.956Z,247.07
2023-02-28T23:47:02.924Z,243.00
2023-02-28T23:57:07.646Z,243.47
